createdAt,value
2022-10-15T00:00:08.185Z,99.99
2022-10-15T00:01:08.273Z,99.99
2022-10-15T00:02:08.148Z,99.99
2022-10-15T00:03:08.150Z,99.99
2022-10-15T00:04:08.173Z,99.99
2022-10-15T00:05:08.117Z,99.99
2022-10-15T00:06:08.127Z,99.99
2022-10-15T00:07:08.113Z,99.99
2022-10-15T00:08:08.093Z,99.99
2022-10-15T00:09:08.076Z,99.99
2022-10-15T00:10:08.064Z,99.99
2022-10-15T00:11:08.051Z,99.99
2022-10-15T00:12:08.048Z,99.99
2022-10-15T00:13:08.046Z,99.99
2022-10-15T00:14:08.034Z,99.99
2022-10-15T00:15:08.032Z,99.99
2022-10-15T00:16:08.081Z,99.99
2022-10-15T00:17:07.988Z,99.99
2022-10-15T00:18:07.974Z,99.99
2022-10-15T00:19:07.971Z,99.99
2022-10-15T00:20:08.186Z,99.99
2022-10-15T00:21:07.962Z,99.99
2022-10-15T00:22:07.930Z,99.99
2022-10-15T00:23:07.935Z,99.99
2022-10-15T00:24:07.917Z,99.99
2022-10-15T00:25:07.907Z,99.99
2022-10-15T00:26:08.022Z,99.99
2022-10-15T00:27:07.872Z,99.99
2022-10-15T00:28:07.877Z,99.99
2022-10-15T00:29:07.997Z,99.99
2022-10-15T00:30:07.856Z,99.99
2022-10-15T00:31:07.838Z,99.99
2022-10-15T00:32:07.829Z,99.99
2022-10-15T00:33:07.817Z,99.99
2022-10-15T00:34:07.803Z,99.99
2022-10-15T00:35:07.794Z,99.99
2022-10-15T00:36:07.802Z,99.99
2022-10-15T00:37:07.768Z,99.99
2022-10-15T00:38:07.757Z,99.99
2022-10-15T00:39:07.794Z,99.99
2022-10-15T00:40:07.772Z,99.99
2022-10-15T00:41:07.731Z,99.99
2022-10-15T00:42:07.738Z,99.99
2022-10-15T00:43:07.705Z,99.99
2022-10-15T00:44:07.691Z,99.99
2022-10-15T00:45:07.692Z,99.99
2022-10-15T00:46:07.674Z,99.99
2022-10-15T00:47:07.664Z,99.99
2022-10-15T00:48:07.705Z,99.99
2022-10-15T00:49:07.638Z,99.99
2022-10-15T00:50:07.627Z,99.99
2022-10-15T00:51:07.624Z,99.99
2022-10-15T00:52:07.597Z,99.99
2022-10-15T00:53:07.590Z,99.99
2022-10-15T00:54:07.626Z,99.99
2022-10-15T00:55:07.584Z,99.99
2022-10-15T00:56:07.582Z,99.99
2022-10-15T00:57:07.578Z,99.99
2022-10-15T00:58:07.602Z,99.99
2022-10-15T00:59:07.537Z,99.99
2022-10-15T01:00:07.544Z,99.99
2022-10-15T01:01:07.558Z,99.99
2022-10-15T01:02:07.491Z,99.99
2022-10-15T01:03:07.497Z,99.99
2022-10-15T01:04:07.504Z,99.99
2022-10-15T01:05:07.493Z,99.99
2022-10-15T01:06:07.447Z,99.99
2022-10-15T01:07:07.501Z,99.99
2022-10-15T01:08:07.430Z,99.99
2022-10-15T01:09:07.436Z,99.99
2022-10-15T01:10:07.417Z,99.99
2022-10-15T05:01:10.566Z,99.99
2022-10-15T05:02:11.537Z,99.99
2022-10-15T05:03:11.479Z,99.99
2022-10-15T05:04:11.470Z,99.99
2022-10-15T05:05:11.462Z,99.99
2022-10-15T05:06:11.464Z,99.99
2022-10-15T05:07:11.435Z,99.99
2022-10-15T05:08:11.425Z,99.99
2022-10-15T05:09:11.417Z,99.99
2022-10-15T05:10:11.394Z,99.99
2022-10-15T05:11:11.427Z,99.99
2022-10-15T05:12:11.399Z,99.99
2022-10-15T05:13:11.384Z,99.99
2022-10-15T05:14:11.366Z,99.99
2022-10-15T05:15:11.377Z,99.99
2022-10-15T05:16:11.386Z,99.99
2022-10-15T05:17:11.366Z,99.99
2022-10-15T05:18:11.322Z,99.99
2022-10-15T05:19:11.302Z,99.99
2022-10-15T05:20:11.305Z,99.99
2022-10-15T05:21:11.292Z,99.99
2022-10-15T05:22:11.265Z,99.99
2022-10-15T05:23:11.293Z,99.99
2022-10-15T05:24:11.261Z,99.99
2022-10-15T05:25:11.183Z,99.99
2022-10-15T05:26:11.210Z,99.99
2022-10-15T05:27:11.165Z,99.99
2022-10-15T05:28:11.155Z,99.99
2022-10-15T05:29:11.182Z,99.99
2022-10-15T05:30:11.130Z,99.99
2022-10-15T05:31:16.065Z,99.99
2022-10-15T05:32:11.178Z,99.99
2022-10-15T05:33:11.113Z,99.99
2022-10-15T05:34:11.096Z,99.99
2022-10-15T05:35:11.089Z,99.99
2022-10-15T05:36:11.060Z,99.99
2022-10-15T05:37:11.046Z,99.99
2022-10-15T05:38:11.032Z,99.99
2022-10-15T05:39:11.039Z,99.99
2022-10-15T05:40:11.018Z,99.99
2022-10-15T05:41:11.027Z,99.99
2022-10-15T05:42:11.035Z,99.99
2022-10-15T05:43:10.992Z,99.99
2022-10-15T05:44:10.973Z,99.99
2022-10-15T05:45:10.966Z,99.99
2022-10-15T05:46:10.955Z,99.99
2022-10-15T05:47:10.948Z,99.99
2022-10-15T05:48:10.945Z,99.99
2022-10-15T05:49:10.924Z,99.99
2022-10-15T05:50:11.842Z,99.99
2022-10-15T05:51:10.899Z,99.99
2022-10-15T05:52:10.913Z,99.99
2022-10-15T05:53:10.916Z,99.99
2022-10-15T05:54:10.868Z,99.99
2022-10-15T05:55:10.856Z,99.99
2022-10-15T05:56:10.843Z,99.99
2022-10-15T05:57:10.844Z,99.99
2022-10-15T05:58:10.826Z,99.99
2022-10-15T05:59:10.817Z,99.99
2022-10-15T06:00:10.792Z,99.99
2022-10-15T06:01:10.789Z,99.99
2022-10-15T06:02:10.851Z,99.99
2022-10-15T06:03:10.782Z,99.99
2022-10-15T06:04:10.777Z,99.99
2022-10-15T06:05:10.747Z,99.99
2022-10-15T06:06:10.732Z,99.99
2022-10-15T06:07:10.718Z,99.99
2022-10-15T06:08:10.705Z,99.99
2022-10-15T06:09:10.723Z,99.99
2022-10-15T06:10:10.684Z,99.99
2022-10-15T06:11:10.680Z,99.99
2022-10-15T06:12:10.665Z,99.99
2022-10-15T06:13:10.656Z,99.99
2022-10-15T06:14:10.638Z,99.99
2022-10-15T06:15:10.670Z,99.99
2022-10-15T06:16:10.618Z,99.99
2022-10-15T06:17:10.610Z,99.99
2022-10-15T06:18:10.603Z,99.99
2022-10-15T06:19:10.586Z,99.99
2022-10-15T06:20:10.572Z,99.99
2022-10-15T06:21:10.587Z,99.99
2022-10-15T06:22:10.562Z,99.99
2022-10-15T06:23:10.557Z,99.99
2022-10-15T06:24:10.534Z,99.99
2022-10-15T06:25:10.520Z,99.99
2022-10-15T06:26:10.512Z,99.99
2022-10-15T06:27:10.515Z,99.99
2022-10-15T06:28:10.486Z,99.99
2022-10-15T06:29:10.480Z,99.99
2022-10-15T06:30:10.468Z,99.99
2022-10-15T06:31:10.461Z,99.99
2022-10-15T06:32:10.439Z,99.99
2022-10-15T06:34:10.426Z,99.99
2022-10-15T06:35:10.414Z,99.99
2022-10-15T06:36:10.400Z,99.99
2022-10-15T06:37:10.394Z,99.99
2022-10-15T06:38:10.391Z,99.99
2022-10-15T06:39:10.379Z,99.99
2022-10-15T06:40:10.356Z,99.99
2022-10-15T06:41:10.370Z,99.99
2022-10-15T06:42:10.343Z,99.99
2022-10-15T06:43:10.326Z,99.99
2022-10-15T06:44:10.330Z,99.99
2022-10-15T06:45:10.321Z,99.99
2022-10-15T06:46:10.300Z,99.99
2022-10-15T06:47:10.295Z,99.99
2022-10-15T06:48:10.292Z,99.99
2022-10-15T06:49:10.269Z,99.99
2022-10-15T06:50:10.257Z,99.99
2022-10-15T06:51:10.247Z,99.99
2022-10-15T06:52:10.228Z,99.99
2022-10-15T06:53:10.264Z,99.99
2022-10-15T06:54:10.261Z,99.99
2022-10-15T06:55:10.196Z,99.99
2022-10-15T06:56:10.220Z,99.99
2022-10-15T06:57:10.188Z,99.99
2022-10-15T06:58:10.165Z,99.99
2022-10-15T06:59:10.164Z,99.99
2022-10-15T07:00:10.143Z,99.99
2022-10-15T07:01:10.138Z,99.99
2022-10-15T07:02:10.140Z,99.99
2022-10-15T07:03:10.114Z,99.99
2022-10-15T07:04:10.131Z,99.99
2022-10-15T07:05:10.089Z,99.99
2022-10-15T07:06:10.073Z,99.99
2022-10-15T07:07:10.083Z,99.99
2022-10-15T07:08:10.537Z,99.99
2022-10-15T07:09:10.060Z,99.99
2022-10-15T07:10:10.123Z,99.99
2022-10-15T07:11:10.026Z,99.99
2022-10-15T07:12:10.016Z,99.99
2022-10-15T07:13:10.014Z,99.99
2022-10-15T07:14:09.991Z,99.99
2022-10-15T07:15:09.987Z,99.99
2022-10-15T07:16:09.966Z,99.99
2022-10-15T07:17:09.963Z,99.99
2022-10-15T07:18:09.942Z,99.99
2022-10-15T07:19:09.950Z,99.99
2022-10-15T07:20:09.920Z,99.99
2022-10-15T07:22:09.905Z,99.99
2022-10-15T07:23:09.893Z,99.99
2022-10-15T07:24:09.885Z,99.99
2022-10-15T07:25:09.890Z,99.99
2022-10-15T07:26:09.872Z,99.99
2022-10-15T07:27:18.646Z,99.99
2022-10-15T07:28:09.843Z,99.99
2022-10-15T07:29:09.850Z,99.99
2022-10-15T07:30:09.856Z,99.99
2022-10-15T07:31:09.828Z,99.99
2022-10-15T07:32:09.789Z,99.99
2022-10-15T07:33:09.787Z,99.99
2022-10-15T07:34:09.765Z,99.99
2022-10-15T07:35:09.755Z,99.99
2022-10-15T07:36:09.764Z,99.99
2022-10-15T07:37:09.736Z,99.99
2022-10-15T07:38:09.745Z,99.99
2022-10-15T07:39:09.718Z,99.99
2022-10-15T07:40:09.712Z,99.99
2022-10-15T07:41:09.692Z,99.99
2022-10-15T07:42:09.732Z,99.99
2022-10-15T07:43:09.665Z,99.99
2022-10-15T07:44:09.698Z,99.99
2022-10-15T07:45:09.651Z,99.99
2022-10-15T07:46:09.638Z,99.99
2022-10-15T07:47:09.644Z,99.99
2022-10-15T07:48:09.652Z,99.99
2022-10-15T07:49:09.605Z,99.99
2022-10-15T07:50:09.630Z,99.99
2022-10-15T07:51:09.634Z,99.99
2022-10-15T07:52:09.582Z,99.99
2022-10-15T07:53:09.563Z,99.99
2022-10-15T07:54:09.547Z,99.99
2022-10-15T07:55:09.560Z,99.99
2022-10-15T07:56:09.545Z,99.99
2022-10-15T07:57:09.511Z,99.99
2022-10-15T07:58:09.501Z,99.99
2022-10-15T07:59:09.499Z,99.99
2022-10-15T08:00:09.488Z,99.99
2022-10-15T08:01:09.488Z,99.99
2022-10-15T08:02:09.464Z,99.99
2022-10-15T08:03:09.452Z,99.99
2022-10-15T08:04:09.456Z,99.99
2022-10-15T08:05:09.438Z,99.99
2022-10-15T08:06:09.443Z,99.99
2022-10-15T08:07:10.333Z,99.99
2022-10-15T08:08:09.398Z,99.99
2022-10-15T08:09:09.385Z,99.99
2022-10-15T08:10:09.375Z,99.99
2022-10-15T08:11:09.363Z,99.99
2022-10-15T08:12:09.372Z,99.99
2022-10-15T08:13:09.341Z,99.99
2022-10-15T08:14:09.340Z,99.99
2022-10-15T08:15:09.339Z,99.99
2022-10-15T08:16:09.326Z,99.99
2022-10-15T08:17:09.300Z,99.99
2022-10-15T08:18:09.312Z,99.99
2022-10-15T08:19:09.281Z,99.99
2022-10-15T08:20:09.274Z,99.99
2022-10-15T08:21:09.265Z,99.99
2022-10-15T08:22:09.245Z,99.99
2022-10-15T08:23:09.237Z,99.99
2022-10-15T08:24:09.238Z,99.99
2022-10-15T08:25:09.210Z,99.99
2022-10-15T08:26:09.212Z,99.99
2022-10-15T08:27:09.191Z,99.99
2022-10-15T08:29:09.181Z,99.99
2022-10-15T08:30:09.156Z,99.99
2022-10-15T08:31:09.147Z,99.99
2022-10-15T08:32:09.144Z,99.99
2022-10-15T08:33:09.127Z,99.99
2022-10-15T08:34:09.120Z,99.99
2022-10-15T08:35:09.140Z,99.99
2022-10-15T08:36:09.096Z,99.99
2022-10-15T08:37:09.150Z,99.99
2022-10-15T08:38:09.078Z,99.99
2022-10-15T08:39:09.061Z,99.99
2022-10-15T08:40:09.078Z,99.99
2022-10-15T08:41:09.047Z,99.99
2022-10-15T08:42:09.042Z,99.99
2022-10-15T08:43:09.017Z,99.99
2022-10-15T08:44:09.024Z,99.99
2022-10-15T08:45:08.996Z,99.99
2022-10-15T08:46:09.007Z,99.99
2022-10-15T08:47:08.987Z,99.99
2022-10-15T08:48:08.960Z,99.99
2022-10-15T08:49:08.963Z,99.99
2022-10-15T08:50:08.953Z,99.99
2022-10-15T08:51:08.933Z,99.99
2022-10-15T08:52:08.929Z,99.99
2022-10-15T08:53:08.911Z,99.99
2022-10-15T08:54:08.898Z,99.99
2022-10-15T08:55:08.892Z,99.99
2022-10-15T08:56:08.891Z,99.99
2022-10-15T08:57:08.867Z,99.99
2022-10-15T08:58:08.859Z,99.99
2022-10-15T08:59:08.849Z,99.99
2022-10-15T09:00:08.828Z,99.99
2022-10-15T09:01:08.815Z,99.99
2022-10-15T09:02:08.806Z,99.99
2022-10-15T09:03:08.869Z,99.99
2022-10-15T09:04:08.790Z,99.99
2022-10-15T09:05:08.782Z,99.99
2022-10-15T09:06:08.765Z,99.99
2022-10-15T09:07:08.749Z,99.99
2022-10-15T09:08:08.758Z,99.99
2022-10-15T09:09:08.751Z,99.99
2022-10-15T09:10:08.717Z,99.99
2022-10-15T09:11:08.715Z,99.99
2022-10-15T09:12:08.694Z,99.99
2022-10-15T09:13:11.433Z,99.99
2022-10-15T09:14:08.709Z,99.99
2022-10-15T09:15:08.747Z,99.99
2022-10-15T09:16:08.652Z,99.99
2022-10-15T09:17:08.643Z,99.99
2022-10-15T09:18:08.637Z,99.99
2022-10-15T09:19:08.637Z,99.99
2022-10-15T09:20:08.653Z,99.99
2022-10-15T09:21:08.595Z,99.99
2022-10-15T09:22:08.591Z,99.99
2022-10-15T09:23:08.578Z,99.99
2022-10-15T09:24:08.577Z,99.99
2022-10-15T09:25:08.596Z,99.99
2022-10-15T09:26:08.543Z,99.99
2022-10-15T09:27:08.533Z,99.99
2022-10-15T09:28:08.535Z,99.99
2022-10-15T09:29:08.566Z,99.99
2022-10-15T09:30:08.509Z,99.99
2022-10-15T09:31:08.554Z,99.99
2022-10-15T09:32:08.493Z,99.99
2022-10-15T09:33:08.465Z,99.99
2022-10-15T09:34:08.461Z,99.99
2022-10-15T09:35:08.463Z,99.99
2022-10-15T09:36:08.445Z,99.99
2022-10-15T09:37:08.424Z,99.99
2022-10-15T09:38:08.420Z,99.99
2022-10-15T09:39:08.446Z,99.99
2022-10-15T09:40:08.408Z,99.99
2022-10-15T09:42:08.377Z,99.99
2022-10-15T09:43:08.364Z,99.99
2022-10-15T09:44:08.353Z,99.99
2022-10-15T09:45:08.343Z,99.99
2022-10-15T09:46:08.336Z,99.99
2022-10-15T09:47:08.355Z,99.99
2022-10-15T09:48:08.325Z,99.99
2022-10-15T09:49:08.393Z,99.99
2022-10-15T09:50:08.362Z,99.99
2022-10-15T09:51:08.864Z,99.99
2022-10-15T09:52:08.291Z,99.99
2022-10-15T09:53:08.246Z,99.99
2022-10-15T09:54:08.245Z,99.99
2022-10-15T09:55:08.238Z,99.99
2022-10-15T09:56:08.222Z,99.99
2022-10-15T09:57:08.209Z,99.99
2022-10-15T09:58:08.219Z,99.99
2022-10-15T09:59:08.954Z,99.99
2022-10-15T10:00:08.196Z,99.99
2022-10-15T10:01:08.175Z,99.99
2022-10-15T10:02:08.226Z,99.99
2022-10-15T10:03:08.186Z,99.99
2022-10-15T10:04:08.133Z,99.99
2022-10-15T10:05:08.729Z,99.99
2022-10-15T10:06:08.119Z,99.99
2022-10-15T10:07:08.120Z,99.99
2022-10-15T10:08:08.089Z,99.99
2022-10-15T10:09:08.176Z,99.99
2022-10-15T10:10:08.066Z,99.99
2022-10-15T10:11:08.053Z,99.99
2022-10-15T10:12:08.073Z,99.99
2022-10-15T10:13:08.053Z,99.99
2022-10-15T10:14:08.023Z,99.99
2022-10-15T10:15:08.008Z,99.99
2022-10-15T10:16:08.026Z,99.99
2022-10-15T10:17:07.992Z,99.99
2022-10-15T10:18:07.991Z,99.99
2022-10-15T10:19:08.054Z,99.99
2022-10-15T10:20:07.968Z,99.99
2022-10-15T10:21:07.998Z,99.99
2022-10-15T10:22:07.937Z,99.99
2022-10-15T10:23:07.924Z,99.99
2022-10-15T10:24:07.921Z,99.99
2022-10-15T10:25:07.903Z,99.99
2022-10-15T10:26:07.896Z,99.62
2022-10-15T10:27:07.904Z,99.83
2022-10-15T10:28:07.870Z,99.99
2022-10-15T10:29:15.892Z,99.99
2022-10-15T10:30:07.854Z,99.62
2022-10-15T10:31:07.845Z,99.99
2022-10-15T10:32:07.833Z,99.73
2022-10-15T10:33:07.818Z,99.99
2022-10-15T10:34:07.809Z,99.99
2022-10-15T10:35:07.817Z,99.83
2022-10-15T10:36:07.804Z,99.99
2022-10-15T10:37:07.805Z,99.99
2022-10-15T10:38:07.771Z,99.99
2022-10-15T10:39:07.788Z,99.99
2022-10-15T10:40:07.744Z,99.99
2022-10-15T10:41:07.743Z,99.99
2022-10-15T10:42:07.732Z,99.99
2022-10-15T10:43:07.710Z,99.99
2022-10-15T10:44:07.725Z,99.99
2022-10-15T10:45:07.740Z,99.99
2022-10-15T10:46:07.691Z,99.99
2022-10-15T10:47:07.689Z,99.99
2022-10-15T10:48:07.666Z,99.93
2022-10-15T10:49:07.718Z,99.73
2022-10-15T10:50:07.639Z,99.99
2022-10-15T10:51:09.281Z,99.93
2022-10-15T10:52:07.617Z,99.83
2022-10-15T10:53:07.656Z,99.99
2022-10-15T10:54:07.594Z,99.99
2022-10-15T10:55:07.586Z,99.99
2022-10-15T10:56:07.571Z,99.99
2022-10-15T10:57:07.556Z,99.99
2022-10-15T10:58:07.564Z,99.99
2022-10-15T10:59:07.593Z,99.99
2022-10-15T11:00:07.527Z,99.99
2022-10-15T11:01:07.537Z,99.99
2022-10-15T11:02:07.535Z,99.99
2022-10-15T11:03:07.492Z,99.99
2022-10-15T11:04:07.515Z,99.99
2022-10-15T11:05:07.462Z,99.99
2022-10-15T11:06:07.459Z,99.67
2022-10-15T11:07:07.444Z,99.99
2022-10-15T11:08:07.441Z,99.99
2022-10-15T11:09:07.458Z,99.99
2022-10-15T11:10:07.440Z,99.99
2022-10-15T11:11:07.417Z,99.99
2022-10-15T11:12:07.411Z,99.99
2022-10-15T11:13:07.434Z,99.99
2022-10-15T11:14:07.382Z,99.99
2022-10-15T11:15:07.366Z,99.99
2022-10-15T11:16:07.370Z,99.99
2022-10-15T11:17:07.339Z,99.99
2022-10-15T11:18:07.334Z,99.99
2022-10-15T11:19:13.838Z,99.99
2022-10-15T11:20:26.745Z,99.99
2022-10-15T11:21:07.446Z,99.99
2022-10-15T11:22:13.387Z,99.98
2022-10-15T11:23:07.277Z,99.99
2022-10-15T11:24:07.268Z,99.99
2022-10-15T11:25:07.633Z,99.99
2022-10-15T11:26:07.260Z,99.99
2022-10-15T11:27:10.789Z,99.99
2022-10-15T11:28:07.226Z,99.99
2022-10-15T11:29:07.293Z,99.99
2022-10-15T11:30:07.205Z,99.99
2022-10-15T11:31:07.201Z,99.99
2022-10-15T11:32:15.075Z,99.99
2022-10-15T11:33:08.867Z,99.99
2022-10-15T11:34:07.159Z,99.99
2022-10-15T11:35:07.142Z,99.58
2022-10-15T11:36:07.141Z,99.98
2022-10-15T11:37:07.131Z,99.99
2022-10-15T11:38:07.131Z,99.99
2022-10-15T11:39:07.106Z,99.99
2022-10-15T11:40:07.098Z,99.98
2022-10-15T11:41:07.075Z,99.99
2022-10-15T11:42:07.090Z,99.84
2022-10-15T11:43:07.049Z,99.99
2022-10-15T11:44:07.061Z,99.99
2022-10-15T11:45:07.038Z,99.63
2022-10-15T11:46:07.037Z,99.99
2022-10-15T11:47:07.037Z,99.93
2022-10-15T11:48:07.001Z,99.93
2022-10-15T11:49:07.007Z,99.84
2022-10-15T11:50:06.981Z,99.43
2022-10-15T11:51:06.973Z,99.22
2022-10-15T11:52:06.952Z,98.52
2022-10-15T11:53:06.972Z,97.61
2022-10-15T11:54:06.941Z,97.81
2022-10-15T11:55:06.923Z,97.71
2022-10-15T11:56:06.917Z,98.93
2022-10-15T11:57:06.924Z,98.82
2022-10-15T11:58:06.908Z,99.13
2022-10-15T11:59:06.884Z,97.61
2022-10-15T12:00:06.875Z,98.22
2022-10-15T12:01:06.860Z,98.02
2022-10-15T12:02:06.921Z,98.32
2022-10-15T12:03:06.866Z,97.91
2022-10-15T12:04:06.919Z,98.32
2022-10-15T12:05:06.814Z,98.62
2022-10-15T12:06:06.813Z,98.72
2022-10-15T12:07:06.800Z,99.13
2022-10-15T12:08:06.780Z,98.93
2022-10-15T12:09:06.776Z,98.52
2022-10-15T12:10:06.791Z,98.52
2022-10-15T12:11:06.756Z,98.72
2022-10-15T12:12:06.738Z,98.52
2022-10-15T12:13:06.731Z,98.82
2022-10-15T12:14:06.727Z,98.93
2022-10-15T12:15:06.741Z,98.11
2022-10-15T12:16:06.711Z,98.93
2022-10-15T12:17:06.783Z,98.93
2022-10-15T12:18:06.676Z,99.22
2022-10-15T12:19:06.671Z,99.53
2022-10-15T12:20:06.669Z,99.33
2022-10-15T12:21:06.661Z,99.43
2022-10-15T12:22:06.632Z,99.02
2022-10-15T12:23:06.625Z,99.84
2022-10-15T12:24:06.621Z,99.84
2022-10-15T12:25:06.628Z,99.73
2022-10-15T12:26:06.632Z,99.84
2022-10-15T12:27:06.600Z,99.84
2022-10-15T12:28:06.589Z,99.99
2022-10-15T12:29:06.809Z,99.99
2022-10-15T12:30:06.551Z,99.99
2022-10-15T12:31:06.650Z,99.99
2022-10-15T12:32:06.541Z,99.84
2022-10-15T12:33:06.524Z,99.99
2022-10-15T12:34:06.561Z,99.99
2022-10-15T12:35:06.487Z,99.99
2022-10-15T12:36:06.485Z,99.99
2022-10-15T12:37:06.487Z,99.99
2022-10-15T12:38:06.460Z,99.99
2022-10-15T12:39:16.011Z,99.99
2022-10-15T12:40:06.510Z,99.99
2022-10-15T12:41:06.464Z,99.99
2022-10-15T12:42:06.433Z,99.99
2022-10-15T12:43:06.412Z,99.99
2022-10-15T12:44:06.409Z,99.99
2022-10-15T12:45:06.384Z,99.99
2022-10-15T12:46:06.421Z,99.99
2022-10-15T12:47:06.361Z,99.99
2022-10-15T12:48:06.355Z,99.99
2022-10-15T12:49:06.374Z,99.99
2022-10-15T12:50:06.328Z,99.99
2022-10-15T12:51:06.509Z,99.99
2022-10-15T12:52:06.329Z,99.99
2022-10-15T12:53:06.295Z,99.99
2022-10-15T12:54:06.294Z,99.99
2022-10-15T12:55:06.283Z,99.99
2022-10-15T12:56:06.267Z,99.99
2022-10-15T12:57:06.271Z,99.99
2022-10-15T12:58:06.238Z,99.99
2022-10-15T12:59:06.228Z,99.99
2022-10-15T13:00:06.230Z,99.99
2022-10-15T13:01:06.243Z,99.99
2022-10-15T13:02:06.201Z,99.99
2022-10-15T13:03:06.198Z,99.99
2022-10-15T13:04:06.179Z,99.99
2022-10-15T13:05:06.173Z,99.99
2022-10-15T13:06:06.162Z,99.99
2022-10-15T13:07:06.146Z,99.99
2022-10-15T13:08:06.159Z,99.99
2022-10-15T13:09:06.142Z,99.99
2022-10-15T13:10:06.127Z,99.99
2022-10-15T13:11:06.101Z,99.99
2022-10-15T13:12:06.081Z,99.99
2022-10-15T13:13:06.080Z,99.99
2022-10-15T13:14:06.106Z,99.99
2022-10-15T13:15:06.058Z,99.99
2022-10-15T13:16:06.044Z,99.99
2022-10-15T13:17:06.035Z,99.99
2022-10-15T13:18:06.025Z,99.99
2022-10-15T13:19:06.031Z,99.99
2022-10-15T13:20:06.019Z,99.99
2022-10-15T13:21:07.667Z,99.99
2022-10-15T13:22:05.994Z,99.99
2022-10-15T13:23:07.074Z,99.99
2022-10-15T13:24:05.970Z,99.99
2022-10-15T13:25:05.953Z,99.99
2022-10-15T13:26:05.959Z,99.99
2022-10-15T13:27:05.936Z,99.99
2022-10-15T13:28:05.913Z,99.99
2022-10-15T13:29:05.959Z,99.99
2022-10-15T13:30:05.906Z,99.99
2022-10-15T13:31:05.903Z,99.99
2022-10-15T13:32:05.865Z,99.99
2022-10-15T13:33:05.863Z,99.99
2022-10-15T13:34:05.849Z,99.99
2022-10-15T13:35:05.836Z,99.99
2022-10-15T13:36:05.827Z,99.99
2022-10-15T13:37:05.852Z,99.99
2022-10-15T13:38:05.799Z,99.99
2022-10-15T13:39:05.801Z,99.99
2022-10-15T13:40:08.080Z,99.99
2022-10-15T13:41:05.775Z,99.99
2022-10-15T13:42:05.766Z,99.99
2022-10-15T13:43:05.776Z,99.99
2022-10-15T13:44:05.737Z,99.78
2022-10-15T13:45:05.770Z,99.68
2022-10-15T13:46:05.721Z,99.38
2022-10-15T13:47:05.704Z,99.99
2022-10-15T13:48:05.713Z,99.99
2022-10-15T13:49:05.691Z,99.99
2022-10-15T13:50:05.694Z,99.99
2022-10-15T13:51:05.678Z,99.99
2022-10-15T13:52:05.652Z,99.68
2022-10-15T13:53:05.668Z,99.78
2022-10-15T13:54:05.637Z,99.99
2022-10-15T13:55:05.614Z,99.99
2022-10-15T13:56:05.624Z,99.68
2022-10-15T13:57:05.605Z,99.58
2022-10-15T13:58:05.584Z,99.48
2022-10-15T13:59:05.578Z,99.38
2022-10-15T14:00:05.570Z,99.78
2022-10-15T14:01:05.625Z,99.99
2022-10-15T14:02:05.541Z,99.88
2022-10-15T14:03:05.540Z,99.48
2022-10-15T14:04:05.523Z,99.27
2022-10-15T14:05:05.510Z,98.77
2022-10-15T14:06:05.506Z,99.88
2022-10-15T14:07:05.525Z,99.78
2022-10-15T14:08:05.475Z,99.38
2022-10-15T14:09:05.475Z,99.48
2022-10-15T14:10:05.458Z,99.68
2022-10-15T14:11:05.441Z,99.88
2022-10-15T14:12:05.582Z,99.78
2022-10-15T14:13:05.444Z,99.18
2022-10-15T14:14:05.422Z,99.48
2022-10-15T14:15:05.417Z,99.73
2022-10-15T14:16:05.404Z,98.97
2022-10-15T14:17:05.391Z,99.07
2022-10-15T14:18:05.366Z,99.43
2022-10-15T14:19:05.378Z,98.93
2022-10-15T14:20:26.314Z,99.53
2022-10-15T14:21:05.349Z,99.43
2022-10-15T14:22:05.330Z,98.82
2022-10-15T14:23:05.317Z,98.77
2022-10-15T14:24:05.329Z,98.77
2022-10-15T14:25:05.334Z,99.18
2022-10-15T14:26:05.287Z,99.27
2022-10-15T14:27:05.277Z,99.33
2022-10-15T14:28:05.263Z,99.53
2022-10-15T14:29:05.303Z,98.87
2022-10-15T14:30:09.748Z,98.67
2022-10-15T14:31:05.243Z,98.36
2022-10-15T14:32:05.214Z,98.47
2022-10-15T14:33:05.220Z,98.52
2022-10-15T14:34:05.229Z,98.27
2022-10-15T14:35:08.624Z,98.07
2022-10-15T14:36:05.203Z,98.36
2022-10-15T14:37:05.168Z,98.57
2022-10-15T14:38:05.161Z,97.96
2022-10-15T14:39:05.147Z,97.86
2022-10-15T14:40:05.131Z,97.16
2022-10-15T14:41:07.341Z,96.95
2022-10-15T14:42:05.128Z,97.05
2022-10-15T14:43:05.124Z,96.55
2022-10-15T14:44:05.086Z,97.56
2022-10-15T14:45:05.084Z,97.36
2022-10-15T14:46:05.082Z,98.02
2022-10-15T14:47:05.058Z,96.95
2022-10-15T14:48:05.059Z,97.05
2022-10-15T14:49:05.049Z,97.16
2022-10-15T14:50:05.028Z,97.36
2022-10-15T14:51:05.019Z,97.36
2022-10-15T14:52:05.011Z,97.76
2022-10-15T14:53:05.017Z,97.66
2022-10-15T14:54:04.972Z,97.86
2022-10-15T14:55:06.297Z,97.86
2022-10-15T14:56:04.958Z,97.36
2022-10-15T14:57:04.940Z,97.76
2022-10-15T14:58:04.934Z,97.56
2022-10-15T14:59:04.964Z,97.76
2022-10-15T15:00:04.908Z,97.45
2022-10-15T15:01:04.924Z,98.16
2022-10-15T15:02:04.893Z,97.66
2022-10-15T15:03:04.979Z,97.56
2022-10-15T15:04:04.889Z,97.86
2022-10-15T15:05:04.858Z,96.95
2022-10-15T15:06:04.876Z,97.66
2022-10-15T15:07:04.851Z,98.07
2022-10-15T15:08:06.704Z,97.76
2022-10-15T15:09:04.838Z,97.16
2022-10-15T15:10:04.797Z,97.36
2022-10-15T15:11:04.794Z,96.45
2022-10-15T15:12:04.812Z,97.36
2022-10-15T15:13:04.771Z,97.45
2022-10-15T15:14:04.756Z,97.45
2022-10-15T15:15:04.766Z,97.25
2022-10-15T15:16:04.737Z,98.07
2022-10-15T15:17:04.745Z,97.05
2022-10-15T15:18:04.734Z,97.16
2022-10-15T15:19:04.727Z,97.45
2022-10-15T15:21:04.689Z,96.25
2022-10-15T15:22:04.669Z,96.04
2022-10-15T15:23:04.665Z,96.85
2022-10-15T15:24:04.664Z,97.05
2022-10-15T15:25:04.681Z,97.05
2022-10-15T15:26:04.637Z,97.76
2022-10-15T15:27:04.633Z,97.86
2022-10-15T15:28:04.606Z,97.86
2022-10-15T15:29:04.763Z,97.56
2022-10-15T15:30:04.707Z,97.66
2022-10-15T15:31:04.586Z,97.25
2022-10-15T15:32:04.584Z,97.66
2022-10-15T15:33:04.548Z,97.96
2022-10-15T15:34:04.539Z,97.66
2022-10-15T15:35:04.581Z,97.86
2022-10-15T15:36:04.560Z,97.66
2022-10-15T15:37:04.518Z,98.07
2022-10-15T15:38:04.500Z,97.45
2022-10-15T15:39:04.494Z,98.47
2022-10-15T15:40:04.524Z,97.45
2022-10-15T15:41:04.491Z,97.45
2022-10-15T15:42:04.478Z,98.87
2022-10-15T15:43:04.466Z,98.47
2022-10-15T15:44:04.433Z,97.86
2022-10-15T15:45:04.429Z,98.57
2022-10-15T15:46:04.410Z,97.56
2022-10-15T15:47:04.423Z,98.77
2022-10-15T15:48:04.467Z,98.36
2022-10-15T15:49:04.391Z,98.77
2022-10-15T15:50:04.467Z,98.57
2022-10-15T15:51:04.362Z,98.36
2022-10-15T15:52:04.349Z,97.86
2022-10-15T15:53:04.347Z,98.77
2022-10-15T15:54:04.348Z,98.67
2022-10-15T15:55:04.317Z,98.57
2022-10-15T15:56:04.299Z,98.16
2022-10-15T15:57:04.303Z,98.67
2022-10-15T15:58:04.286Z,98.57
2022-10-15T15:59:04.294Z,98.16
2022-10-15T16:00:04.296Z,98.87
2022-10-15T16:01:04.260Z,98.97
2022-10-15T16:02:04.276Z,98.77
2022-10-15T16:03:04.232Z,98.77
2022-10-15T16:04:04.255Z,99.07
2022-10-15T16:05:04.222Z,98.67
2022-10-15T16:06:04.194Z,98.27
2022-10-15T16:07:04.185Z,98.97
2022-10-15T16:08:04.184Z,98.67
2022-10-15T16:09:04.159Z,97.96
2022-10-15T16:10:04.237Z,97.86
2022-10-15T16:11:04.156Z,98.77
2022-10-15T16:12:04.142Z,97.96
2022-10-15T16:13:04.130Z,97.86
2022-10-15T16:14:09.086Z,98.47
2022-10-15T16:15:04.112Z,98.87
2022-10-15T16:16:04.082Z,98.47
2022-10-15T16:17:04.087Z,98.07
2022-10-15T16:18:04.086Z,98.57
2022-10-15T16:19:04.055Z,98.47
2022-10-15T16:20:04.125Z,98.67
2022-10-15T16:21:04.029Z,98.67
2022-10-15T16:22:04.026Z,98.67
2022-10-15T16:23:04.022Z,99.27
2022-10-15T16:24:04.014Z,98.87
2022-10-15T16:25:03.989Z,98.77
2022-10-15T16:26:03.984Z,98.87
2022-10-15T16:27:03.973Z,98.77
2022-10-15T16:28:03.947Z,98.47
2022-10-15T16:29:03.939Z,98.57
2022-10-15T16:30:03.994Z,98.67
2022-10-15T16:31:03.934Z,99.27
2022-10-15T16:32:03.908Z,98.67
2022-10-15T16:33:03.963Z,98.47
2022-10-15T16:34:03.893Z,98.57
2022-10-15T16:35:03.898Z,98.67
2022-10-15T16:36:03.898Z,98.36
2022-10-15T16:37:03.884Z,98.77
2022-10-15T16:38:03.846Z,99.18
2022-10-15T16:39:03.826Z,98.47
2022-10-15T16:40:03.827Z,99.07
2022-10-15T16:41:03.814Z,98.36
2022-10-15T16:42:03.896Z,98.77
2022-10-15T16:43:03.782Z,99.18
2022-10-15T16:44:03.793Z,98.67
2022-10-15T16:45:03.764Z,99.07
2022-10-15T16:46:03.762Z,99.02
2022-10-15T16:47:03.758Z,98.61